Time;durP1;ratioP1;P1;durP2;ratioP2;P2;SDS_P1;SDS_P2;PMS_P1;PMS_P2;Temp;Humidity;BMP_temperature;BMP_pressure;BME280_temperature;BME280_humidity;BME280_pressure;Samples;Min_cycle;Max_cycle;Signal;HPM_P1;HPM_P2
2023/05/19 00:02:21;;;;;;;14.10;5.77;;;;;;;;;;5114005;28;20980;-74
2023/05/19 00:04:48;;;;;;;13.07;6.27;;;;;;;;;;5113931;28;20460;-74
2023/05/19 00:07:17;;;;;;;11.53;5.13;;;;;;;;;;5113592;28;20485;-74
2023/05/19 00:09:45;;;;;;;17.90;5.93;;;;;;;;;;5113911;28;20461;-74
2023/05/19 00:12:13;;;;;;;12.00;5.83;;;;;;;;;;5113993;28;20450;-74
2023/05/19 00:14:40;;;;;;;13.07;5.90;;;;;;;;;;5113777;28;20453;-73
2023/05/19 00:17:09;;;;;;;10.33;6.10;;;;;;;;;;5113713;28;20456;-74
2023/05/19 00:19:36;;;;;;;12.50;6.63;;;;;;;;;;5113524;28;20454;-74
2023/05/19 00:22:05;;;;;;;17.30;6.80;;;;;;;;;;5113650;28;20790;-74
2023/05/19 00:24:32;;;;;;;13.90;6.90;;;;;;;;;;5113465;28;20600;-74
2023/05/19 00:26:59;;;;;;;9.67;5.70;;;;;;;;;;5113649;28;20484;-74
2023/05/19 00:29:26;;;;;;;17.37;6.70;;;;;;;;;;5113569;28;20459;-74
2023/05/19 00:31:53;;;;;;;9.13;5.00;;;;;;;;;;5113552;28;20454;-74
2023/05/19 00:34:22;;;;;;;15.67;5.70;;;;;;;;;;5113218;28;20472;-74
2023/05/19 00:36:49;;;;;;;14.10;6.43;;;;;;;;;;5113428;28;20805;-74
2023/05/19 00:39:16;;;;;;;10.30;5.23;;;;;;;;;;5113504;28;20482;-74
2023/05/19 00:41:43;;;;;;;11.83;6.57;;;;;;;;;;5113360;28;20458;-73
2023/05/19 00:44:10;;;;;;;19.83;5.80;;;;;;;;;;5113172;28;20849;-74
2023/05/19 00:46:37;;;;;;;12.37;6.13;;;;;;;;;;5113459;28;20453;-74
2023/05/19 00:49:05;;;;;;;17.90;5.70;;;;;;;;;;5113357;28;20438;-74
2023/05/19 00:51:33;;;;;;;11.13;5.03;;;;;;;;;;5113268;28;20833;-74
2023/05/19 00:54:00;;;;;;;13.90;6.00;;;;;;;;;;5113076;28;20461;-74
2023/05/19 00:56:27;;;;;;;11.87;5.47;;;;;;;;;;5113169;28;20445;-74
2023/05/19 00:58:55;;;;;;;6.30;3.70;;;;;;;;;;5113379;28;20809;-73
2023/05/19 01:01:22;;;;;;;10.13;5.20;;;;;;;;;;5113408;28;20449;-74
2023/05/19 01:03:50;;;;;;;8.37;5.03;;;;;;;;;;5112958;28;20472;-74
2023/05/19 01:06:20;;;;;;;13.73;6.30;;;;;;;;;;5112878;28;20441;-74
2023/05/19 01:08:49;;;;;;;25.53;6.87;;;;;;;;;;5113326;28;20569;-73
2023/05/19 01:11:16;;;;;;;10.93;5.77;;;;;;;;;;5113186;28;20506;-73
2023/05/19 01:13:44;;;;;;;7.50;4.43;;;;;;;;;;5112757;28;20465;-74
2023/05/19 01:16:12;;;;;;;10.00;5.10;;;;;;;;;;5113248;28;20454;-73
2023/05/19 01:18:45;;;;;;;8.23;4.83;;;;;;;;;;5113065;28;20442;-73
2023/05/19 01:21:31;;;;;;;14.97;6.33;;;;;;;;;;5112715;28;20854;-73
2023/05/19 01:24:04;;;;;;;12.90;6.47;;;;;;;;;;5112974;28;21005;-73
2023/05/19 01:26:38;;;;;;;11.43;6.60;;;;;;;;;;5112996;28;20449;-73
2023/05/19 01:29:16;;;;;;;17.13;6.73;;;;;;;;;;5113342;28;20960;-73
2023/05/19 01:31:46;;;;;;;9.33;6.47;;;;;;;;;;5116942;28;20441;-73
2023/05/19 01:34:13;;;;;;;12.93;6.40;;;;;;;;;;5116844;28;20514;-73
2023/05/19 01:36:43;;;;;;;11.50;5.37;;;;;;;;;;5117027;28;20470;-74
2023/05/19 01:39:10;;;;;;;6.97;3.47;;;;;;;;;;5116977;28;20456;-74
2023/05/19 01:41:38;;;;;;;10.93;5.97;;;;;;;;;;5116902;28;20453;-73
2023/05/19 01:44:05;;;;;;;11.47;5.60;;;;;;;;;;5116575;28;20837;-74
2023/05/19 01:46:32;;;;;;;14.87;6.20;;;;;;;;;;5116651;28;20445;-74
2023/05/19 01:49:01;;;;;;;10.93;5.40;;;;;;;;;;5116706;28;20492;-74
2023/05/19 01:51:28;;;;;;;9.27;6.07;;;;;;;;;;5116501;28;20453;-73
2023/05/19 01:53:56;;;;;;;10.07;5.50;;;;;;;;;;5116410;28;20469;-73
2023/05/19 01:56:31;;;;;;;17.90;6.10;;;;;;;;;;5116504;28;20457;-73
2023/05/19 01:59:01;;;;;;;10.50;5.30;;;;;;;;;;5116657;28;20468;-73
2023/05/19 02:01:31;;;;;;;11.27;6.80;;;;;;;;;;5116545;28;20449;-73
2023/05/19 02:04:08;;;;;;;9.13;6.33;;;;;;;;;;5116257;28;20473;-74
2023/05/19 02:06:38;;;;;;;11.57;6.50;;;;;;;;;;5116204;27;20942;-73
2023/05/19 02:09:08;;;;;;;12.70;6.07;;;;;;;;;;5116264;27;20492;-73
2023/05/19 02:11:37;;;;;;;10.63;6.00;;;;;;;;;;5116259;28;20844;-73
2023/05/19 02:14:08;;;;;;;11.80;5.33;;;;;;;;;;5115948;28;20477;-73
2023/05/19 02:16:37;;;;;;;9.97;5.60;;;;;;;;;;5116097;28;20457;-73
2023/05/19 02:19:05;;;;;;;14.37;5.10;;;;;;;;;;5116253;28;20516;-73
2023/05/19 02:21:32;;;;;;;15.67;7.23;;;;;;;;;;5115400;28;20454;-73
2023/05/19 02:23:59;;;;;;;6.93;5.17;;;;;;;;;;5115763;28;20474;-73
2023/05/19 02:26:26;;;;;;;9.43;5.37;;;;;;;;;;5115949;28;20491;-74
2023/05/19 02:28:54;;;;;;;15.57;6.73;;;;;;;;;;5116062;28;20493;-74
2023/05/19 02:31:21;;;;;;;12.67;5.67;;;;;;;;;;5115898;27;20454;-74
2023/05/19 02:33:48;;;;;;;11.87;5.70;;;;;;;;;;5115694;28;20477;-73
2023/05/19 02:36:17;;;;;;;9.03;6.23;;;;;;;;;;5115802;28;20456;-74
2023/05/19 02:38:44;;;;;;;11.27;6.33;;;;;;;;;;5115721;28;20476;-74
2023/05/19 02:41:11;;;;;;;16.63;6.30;;;;;;;;;;5114474;28;20828;-73
2023/05/19 02:43:38;;;;;;;9.50;5.60;;;;;;;;;;5115326;28;20877;-74
2023/05/19 02:46:05;;;;;;;10.50;6.67;;;;;;;;;;5115694;28;20450;-74
2023/05/19 02:48:32;;;;;;;9.40;6.03;;;;;;;;;;5115433;28;20493;-73
2023/05/19 02:50:59;;;;;;;15.63;6.00;;;;;;;;;;5115624;28;20456;-73
2023/05/19 02:53:27;;;;;;;10.13;6.77;;;;;;;;;;5115250;28;20477;-73
2023/05/19 02:55:54;;;;;;;17.43;6.97;;;;;;;;;;5115318;28;20453;-73
2023/05/19 02:58:21;;;;;;;10.27;5.70;;;;;;;;;;5115342;28;20445;-73
2023/05/19 03:00:50;;;;;;;13.30;6.87;;;;;;;;;;5115439;28;20954;-73
2023/05/19 03:03:17;;;;;;;16.27;5.97;;;;;;;;;;5115151;28;21013;-74
2023/05/19 03:05:44;;;;;;;11.50;7.20;;;;;;;;;;5115096;28;20461;-74
2023/05/19 03:08:11;;;;;;;11.07;6.53;;;;;;;;;;5115209;28;20560;-74
2023/05/19 03:10:40;;;;;;;10.73;6.40;;;;;;;;;;5115163;28;20495;-73
2023/05/19 03:13:07;;;;;;;17.33;7.63;;;;;;;;;;5115017;28;20472;-73
2023/05/19 03:15:35;;;;;;;10.53;6.87;;;;;;;;;;5114811;28;20465;-74
2023/05/19 03:18:02;;;;;;;14.30;7.37;;;;;;;;;;5115181;28;20504;-74
2023/05/19 03:20:30;;;;;;;12.63;6.83;;;;;;;;;;5114343;27;20452;-73
2023/05/19 03:22:57;;;;;;;12.23;6.87;;;;;;;;;;5115000;28;20555;-73
2023/05/19 03:25:24;;;;;;;13.73;6.80;;;;;;;;;;5114517;28;20458;-73
2023/05/19 03:27:53;;;;;;;13.27;7.30;;;;;;;;;;5114692;28;20496;-74
2023/05/19 03:30:20;;;;;;;14.63;7.37;;;;;;;;;;5114764;28;20454;-74
2023/05/19 03:32:47;;;;;;;13.83;7.10;;;;;;;;;;5114708;28;20565;-73
2023/05/19 03:35:14;;;;;;;12.97;7.20;;;;;;;;;;5114443;28;20450;-73
2023/05/19 03:37:41;;;;;;;12.33;6.83;;;;;;;;;;5114497;28;20446;-73
2023/05/19 03:40:09;;;;;;;20.03;7.23;;;;;;;;;;5114555;28;20556;-73
2023/05/19 03:42:36;;;;;;;22.40;7.47;;;;;;;;;;5114368;27;20469;-74
2023/05/19 03:45:05;;;;;;;12.40;6.97;;;;;;;;;;5114309;28;20954;-73
2023/05/19 03:47:32;;;;;;;9.03;6.50;;;;;;;;;;5114190;28;20548;-73
2023/05/19 03:49:59;;;;;;;14.10;7.33;;;;;;;;;;5114336;28;20453;-73
2023/05/19 03:52:27;;;;;;;9.60;6.80;;;;;;;;;;5113699;28;20450;-73
2023/05/19 03:54:54;;;;;;;14.93;6.90;;;;;;;;;;5114141;28;20953;-73
2023/05/19 03:57:21;;;;;;;13.37;7.60;;;;;;;;;;5114209;28;20493;-73
2023/05/19 03:59:48;;;;;;;12.00;7.43;;;;;;;;;;5114434;28;20939;-73
2023/05/19 04:02:17;;;;;;;14.23;7.67;;;;;;;;;;5114110;28;20825;-73
2023/05/19 04:04:44;;;;;;;18.57;7.70;;;;;;;;;;5113891;28;20946;-73
2023/05/19 04:07:11;;;;;;;10.37;7.43;;;;;;;;;;5113868;28;20552;-73
2023/05/19 04:09:38;;;;;;;12.60;7.27;;;;;;;;;;5114274;28;20466;-74
2023/05/19 04:12:06;;;;;;;14.50;7.70;;;;;;;;;;5113959;28;20460;-74
2023/05/19 04:14:33;;;;;;;10.67;6.47;;;;;;;;;;5113405;28;20875;-73
2023/05/19 04:17:00;;;;;;;16.33;7.40;;;;;;;;;;5114002;28;20453;-73
2023/05/19 04:19:28;;;;;;;14.80;6.60;;;;;;;;;;5113646;28;20459;-74
2023/05/19 04:21:55;;;;;;;12.13;7.60;;;;;;;;;;5113301;28;20943;-74
2023/05/19 04:24:23;;;;;;;13.73;7.27;;;;;;;;;;5113557;28;20474;-73
2023/05/19 04:26:50;;;;;;;14.63;8.20;;;;;;;;;;5113674;28;20445;-73
2023/05/19 04:29:18;;;;;;;24.53;6.57;;;;;;;;;;5113605;28;20485;-74
2023/05/19 04:31:45;;;;;;;12.30;7.60;;;;;;;;;;5113781;28;20442;-73
2023/05/19 04:34:12;;;;;;;18.20;7.90;;;;;;;;;;5113402;28;20473;-73
2023/05/19 04:36:41;;;;;;;13.83;7.10;;;;;;;;;;5113683;28;20458;-73
2023/05/19 04:39:10;;;;;;;21.93;9.20;;;;;;;;;;5113532;27;20506;-73
2023/05/19 04:41:39;;;;;;;10.33;7.17;;;;;;;;;;5113708;28;20459;-73
2023/05/19 04:44:07;;;;;;;10.90;6.90;;;;;;;;;;5113210;28;20470;-73
2023/05/19 04:46:34;;;;;;;9.03;6.70;;;;;;;;;;5113451;28;20485;-73
2023/05/19 04:49:02;;;;;;;10.77;6.70;;;;;;;;;;5113369;28;20486;-74
2023/05/19 04:51:30;;;;;;;9.37;7.20;;;;;;;;;;5113359;28;20939;-74
2023/05/19 04:53:58;;;;;;;10.63;7.10;;;;;;;;;;5113304;28;20465;-74
2023/05/19 04:56:26;;;;;;;16.10;7.40;;;;;;;;;;5114090;28;20453;-74
2023/05/19 04:58:53;;;;;;;13.67;8.73;;;;;;;;;;5113634;28;20510;-74
2023/05/19 05:01:24;;;;;;;9.77;6.20;;;;;;;;;;5113792;28;20445;-74
2023/05/19 05:03:53;;;;;;;11.47;7.10;;;;;;;;;;5113398;28;20522;-74
2023/05/19 05:06:21;;;;;;;9.90;7.03;;;;;;;;;;5117634;28;20458;-73
2023/05/19 05:08:48;;;;;;;7.63;5.70;;;;;;;;;;5117571;28;20510;-74
2023/05/19 05:11:17;;;;;;;11.90;6.70;;;;;;;;;;5117620;28;20528;-74
2023/05/19 05:13:44;;;;;;;15.90;5.87;;;;;;;;;;5116954;28;20473;-73
2023/05/19 05:16:12;;;;;;;11.53;6.37;;;;;;;;;;5117496;28;20930;-74
2023/05/19 05:18:39;;;;;;;9.23;6.50;;;;;;;;;;5117210;28;20864;-73
2023/05/19 05:21:07;;;;;;;10.10;6.47;;;;;;;;;;5116646;28;20454;-73
2023/05/19 05:23:34;;;;;;;15.07;6.70;;;;;;;;;;5116932;28;20469;-73
2023/05/19 05:26:07;;;;;;;10.53;7.30;;;;;;;;;;5117319;28;20450;-74
2023/05/19 05:28:35;;;;;;;7.57;6.63;;;;;;;;;;5117055;27;20485;-73
2023/05/19 05:31:02;;;;;;;16.03;7.97;;;;;;;;;;5117374;28;20941;-74
2023/05/19 05:33:29;;;;;;;15.60;7.47;;;;;;;;;;5116657;28;20831;-73
2023/05/19 05:35:56;;;;;;;10.10;5.60;;;;;;;;;;5117072;28;20476;-74
2023/05/19 05:38:24;;;;;;;12.17;7.60;;;;;;;;;;5117117;28;20452;-74
2023/05/19 05:40:52;;;;;;;9.30;6.30;;;;;;;;;;5117017;28;20957;-73
2023/05/19 05:43:19;;;;;;;8.40;5.87;;;;;;;;;;5116911;28;20517;-73
2023/05/19 05:45:47;;;;;;;9.07;6.10;;;;;;;;;;5116608;28;20449;-73
2023/05/19 05:48:14;;;;;;;9.13;5.53;;;;;;;;;;5116601;28;20449;-74
2023/05/19 05:50:43;;;;;;;10.53;5.70;;;;;;;;;;5116682;28;20452;-74
2023/05/19 05:53:11;;;;;;;7.83;5.87;;;;;;;;;;5116532;27;20509;-74
2023/05/19 05:55:38;;;;;;;9.77;6.40;;;;;;;;;;5116315;27;20493;-74
2023/05/19 05:58:09;;;;;;;9.93;5.50;;;;;;;;;;5116578;27;20461;-75
2023/05/19 06:00:37;;;;;;;6.33;5.70;;;;;;;;;;5116488;27;20461;-75
2023/05/19 06:03:05;;;;;;;6.67;5.17;;;;;;;;;;5116486;28;20835;-75
2023/05/19 06:05:32;;;;;;;16.33;8.70;;;;;;;;;;5116118;28;20456;-74
2023/05/19 06:07:59;;;;;;;7.13;5.50;;;;;;;;;;5116072;27;20469;-74
2023/05/19 06:10:26;;;;;;;8.50;5.47;;;;;;;;;;5116334;28;21020;-74
2023/05/19 06:12:53;;;;;;;9.13;5.70;;;;;;;;;;5116212;28;20997;-74
2023/05/19 06:15:21;;;;;;;9.23;6.30;;;;;;;;;;5115630;27;20479;-74
2023/05/19 06:17:48;;;;;;;13.27;6.10;;;;;;;;;;5116123;28;20453;-74
2023/05/19 06:20:18;;;;;;;16.70;6.60;;;;;;;;;;5115506;28;20475;-74
2023/05/19 06:22:45;;;;;;;9.27;6.00;;;;;;;;;;5115962;28;20473;-74
2023/05/19 06:25:13;;;;;;;12.53;5.70;;;;;;;;;;5115937;27;20460;-74
2023/05/19 06:27:40;;;;;;;6.97;5.33;;;;;;;;;;5115868;28;20502;-74
2023/05/19 06:30:08;;;;;;;6.47;5.87;;;;;;;;;;5115931;28;20492;-75
2023/05/19 06:32:35;;;;;;;8.20;4.93;;;;;;;;;;5115665;28;20462;-74
2023/05/19 06:35:02;;;;;;;9.30;5.97;;;;;;;;;;5115877;28;20960;-75
2023/05/19 06:37:30;;;;;;;8.70;5.77;;;;;;;;;;5115739;28;20456;-74
2023/05/19 06:39:57;;;;;;;8.17;5.90;;;;;;;;;;5115707;28;20457;-74
2023/05/19 06:42:24;;;;;;;6.70;5.80;;;;;;;;;;5115525;28;20454;-74
2023/05/19 06:44:52;;;;;;;10.93;6.40;;;;;;;;;;5115472;28;20449;-74
2023/05/19 06:47:20;;;;;;;9.00;5.83;;;;;;;;;;5115576;28;20453;-74
2023/05/19 06:49:49;;;;;;;9.70;6.57;;;;;;;;;;5115533;28;20494;-74
2023/05/19 06:52:16;;;;;;;9.43;6.10;;;;;;;;;;5115477;27;20460;-74
2023/05/19 06:54:44;;;;;;;16.83;6.73;;;;;;;;;;5115246;28;20450;-74
2023/05/19 06:57:11;;;;;;;8.60;6.60;;;;;;;;;;5115675;28;20495;-74
2023/05/19 06:59:39;;;;;;;8.83;5.90;;;;;;;;;;5115420;28;20450;-74
2023/05/19 07:02:07;;;;;;;9.90;6.97;;;;;;;;;;5115457;28;20449;-74
2023/05/19 07:04:34;;;;;;;10.50;7.43;;;;;;;;;;5114989;28;20474;-74
2023/05/19 07:07:01;;;;;;;9.57;6.60;;;;;;;;;;5114967;28;20456;-74
2023/05/19 07:09:28;;;;;;;8.60;7.40;;;;;;;;;;5115050;28;20477;-74
2023/05/19 07:11:57;;;;;;;8.97;5.80;;;;;;;;;;5115453;28;20445;-74
2023/05/19 07:14:24;;;;;;;12.13;7.37;;;;;;;;;;5114590;28;20488;-73
2023/05/19 07:16:51;;;;;;;10.90;7.77;;;;;;;;;;5115254;28;20450;-74
2023/05/19 07:19:18;;;;;;;6.70;6.00;;;;;;;;;;5115014;28;20506;-73
2023/05/19 07:21:45;;;;;;;14.30;6.87;;;;;;;;;;5114484;28;20503;-74
2023/05/19 07:24:13;;;;;;;9.00;5.80;;;;;;;;;;5114777;28;20480;-73
2023/05/19 07:26:40;;;;;;;11.47;8.10;;;;;;;;;;5114536;28;20970;-74
2023/05/19 07:29:08;;;;;;;11.27;7.03;;;;;;;;;;5114442;28;20998;-74
2023/05/19 07:31:35;;;;;;;10.00;6.17;;;;;;;;;;5114724;28;20457;-73
2023/05/19 07:34:03;;;;;;;8.60;5.70;;;;;;;;;;5114542;28;20488;-73
2023/05/19 07:36:30;;;;;;;6.90;6.10;;;;;;;;;;5114555;28;20450;-74
2023/05/19 07:38:57;;;;;;;9.17;7.17;;;;;;;;;;5114598;28;20481;-74
2023/05/19 07:41:25;;;;;;;10.33;7.13;;;;;;;;;;5114441;28;20796;-73
2023/05/19 07:43:52;;;;;;;8.63;6.90;;;;;;;;;;5114425;28;20469;-73
2023/05/19 07:46:20;;;;;;;11.70;6.70;;;;;;;;;;5114406;28;20457;-73
2023/05/19 07:48:47;;;;;;;6.67;5.97;;;;;;;;;;5114386;28;20878;-73
2023/05/19 07:51:15;;;;;;;13.83;7.40;;;;;;;;;;5114364;28;20449;-74
2023/05/19 07:53:42;;;;;;;8.93;5.67;;;;;;;;;;5114187;28;20496;-73
2023/05/19 07:56:09;;;;;;;10.43;7.10;;;;;;;;;;5114260;28;20457;-74
2023/05/19 07:58:36;;;;;;;11.73;7.33;;;;;;;;;;5114091;28;20457;-73
2023/05/19 08:01:03;;;;;;;12.33;7.13;;;;;;;;;;5114182;28;20442;-74
2023/05/19 08:03:32;;;;;;;16.63;8.93;;;;;;;;;;5113754;27;20473;-73
2023/05/19 08:06:02;;;;;;;10.17;7.00;;;;;;;;;;5114010;28;20464;-73
2023/05/19 08:08:29;;;;;;;9.57;6.90;;;;;;;;;;5113780;28;20456;-73
2023/05/19 08:10:56;;;;;;;9.53;7.13;;;;;;;;;;5114030;28;20488;-74
2023/05/19 08:13:23;;;;;;;8.47;5.70;;;;;;;;;;5113840;28;20856;-74
2023/05/19 08:15:50;;;;;;;10.17;7.53;;;;;;;;;;5113731;28;20947;-73
2023/05/19 08:18:18;;;;;;;9.80;6.77;;;;;;;;;;5113907;28;20452;-74
2023/05/19 08:20:47;;;;;;;7.43;6.70;;;;;;;;;;5113429;28;20446;-74
2023/05/19 08:23:14;;;;;;;12.10;7.10;;;;;;;;;;5113685;28;20473;-74
2023/05/19 08:25:41;;;;;;;10.73;8.07;;;;;;;;;;5113490;28;20973;-74
2023/05/19 08:28:08;;;;;;;10.50;8.00;;;;;;;;;;5113726;28;20453;-74
2023/05/19 08:30:35;;;;;;;9.60;6.50;;;;;;;;;;5113438;28;20492;-74
2023/05/19 08:33:02;;;;;;;9.20;6.77;;;;;;;;;;5113528;28;20465;-74
2023/05/19 08:35:29;;;;;;;8.10;6.20;;;;;;;;;;5113536;28;20961;-74
2023/05/19 08:37:58;;;;;;;9.60;6.80;;;;;;;;;;5113649;28;20489;-73
2023/05/19 08:40:29;;;;;;;8.10;6.27;;;;;;;;;;5113556;28;20442;-74
2023/05/19 08:42:56;;;;;;;10.67;7.80;;;;;;;;;;5113585;28;20565;-73
2023/05/19 08:45:23;;;;;;;7.33;5.70;;;;;;;;;;5113269;28;20446;-73
2023/05/19 08:47:51;;;;;;;12.97;7.23;;;;;;;;;;5113449;28;20483;-74
2023/05/19 08:50:21;;;;;;;11.43;7.40;;;;;;;;;;5113311;28;20482;-73
2023/05/19 08:52:52;;;;;;;11.17;5.87;;;;;;;;;;5113288;28;20474;-73
2023/05/19 08:55:26;;;;;;;10.47;7.03;;;;;;;;;;5113160;28;20457;-73
2023/05/19 08:57:53;;;;;;;10.93;7.17;;;;;;;;;;5113466;28;20464;-73
2023/05/19 09:00:21;;;;;;;10.03;7.23;;;;;;;;;;5113248;28;20460;-74
2023/05/19 09:02:50;;;;;;;12.83;7.83;;;;;;;;;;5113068;28;20513;-74
2023/05/19 09:05:17;;;;;;;9.30;7.33;;;;;;;;;;5113052;28;20489;-73
2023/05/19 09:07:45;;;;;;;8.43;6.70;;;;;;;;;;5113141;28;20961;-74
2023/05/19 09:10:14;;;;;;;9.67;7.43;;;;;;;;;;5113145;28;20490;-74
2023/05/19 09:12:44;;;;;;;9.03;6.10;;;;;;;;;;5113217;28;20978;-73
2023/05/19 09:15:11;;;;;;;7.57;6.43;;;;;;;;;;5112973;28;20465;-74
2023/05/19 09:17:39;;;;;;;13.40;6.70;;;;;;;;;;5113015;28;20492;-73
2023/05/19 09:20:10;;;;;;;10.20;6.77;;;;;;;;;;5112807;28;20537;-74
2023/05/19 09:22:41;;;;;;;8.23;6.57;;;;;;;;;;5112975;28;21075;-74
2023/05/19 09:25:18;;;;;;;7.03;6.03;;;;;;;;;;5113138;28;20812;-74
2023/05/19 09:27:48;;;;;;;7.90;6.27;;;;;;;;;;5112987;28;20466;-74
2023/05/19 09:30:16;;;;;;;9.60;6.40;;;;;;;;;;5112935;28;20541;-74
2023/05/19 09:32:43;;;;;;;18.80;6.77;;;;;;;;;;5112999;28;20473;-74
2023/05/19 09:35:11;;;;;;;17.87;7.40;;;;;;;;;;5112751;28;20817;-73
2023/05/19 09:37:40;;;;;;;8.70;7.47;;;;;;;;;;5112908;28;20460;-73
2023/05/19 09:40:09;;;;;;;14.63;6.10;;;;;;;;;;5113014;28;20446;-73
2023/05/19 09:42:37;;;;;;;10.47;8.10;;;;;;;;;;5112645;28;20580;-73
2023/05/19 09:45:07;;;;;;;11.20;7.97;;;;;;;;;;5112805;28;20454;-73
2023/05/19 09:47:35;;;;;;;7.33;6.60;;;;;;;;;;5112799;28;20544;-74
2023/05/19 09:50:02;;;;;;;9.97;7.60;;;;;;;;;;5112917;28;20489;-74
2023/05/19 09:52:30;;;;;;;11.17;8.37;;;;;;;;;;5116613;28;20445;-73
2023/05/19 09:54:57;;;;;;;10.63;7.60;;;;;;;;;;5116467;28;20962;-73
2023/05/19 09:57:27;;;;;;;15.50;9.07;;;;;;;;;;5116480;28;20458;-73
2023/05/19 09:59:55;;;;;;;11.63;8.17;;;;;;;;;;5116611;28;20456;-73
2023/05/19 10:02:25;;;;;;;9.20;7.63;;;;;;;;;;5116461;28;20942;-73
2023/05/19 10:04:53;;;;;;;13.17;8.70;;;;;;;;;;5116463;28;20829;-74
2023/05/19 10:07:22;;;;;;;10.80;7.30;;;;;;;;;;5116059;28;20495;-73
2023/05/19 10:09:50;;;;;;;10.10;8.40;;;;;;;;;;5116298;28;20477;-73
2023/05/19 10:12:18;;;;;;;9.77;8.27;;;;;;;;;;5116231;28;20461;-74
2023/05/19 10:14:46;;;;;;;12.80;8.13;;;;;;;;;;5116044;28;20461;-74
2023/05/19 10:17:14;;;;;;;12.03;8.73;;;;;;;;;;5116185;28;20453;-74
2023/05/19 10:19:44;;;;;;;12.70;8.03;;;;;;;;;;5115974;28;20833;-73
2023/05/19 10:22:12;;;;;;;13.23;9.00;;;;;;;;;;5116261;28;20481;-73
2023/05/19 10:24:39;;;;;;;11.63;7.63;;;;;;;;;;5115764;28;20489;-74
2023/05/19 10:27:08;;;;;;;10.90;7.90;;;;;;;;;;5115930;28;20460;-74
2023/05/19 10:29:37;;;;;;;10.20;7.43;;;;;;;;;;5115862;28;20450;-74
2023/05/19 10:32:06;;;;;;;15.50;7.87;;;;;;;;;;5116042;28;20455;-74
2023/05/19 10:34:49;;;;;;;11.37;7.63;;;;;;;;;;5115527;28;20470;-73
2023/05/19 10:37:21;;;;;;;15.03;8.00;;;;;;;;;;5115861;28;20946;-74
2023/05/19 10:39:49;;;;;;;13.53;7.87;;;;;;;;;;5115803;28;20457;-74
2023/05/19 10:42:17;;;;;;;10.20;8.30;;;;;;;;;;5115572;28;20510;-74
2023/05/19 10:44:51;;;;;;;10.50;7.80;;;;;;;;;;5115606;28;20536;-73
2023/05/19 10:47:23;;;;;;;10.27;7.60;;;;;;;;;;5115733;28;20812;-74
2023/05/19 10:49:50;;;;;;;8.90;7.57;;;;;;;;;;5115741;28;20849;-74
2023/05/19 10:52:22;;;;;;;8.23;7.10;;;;;;;;;;5115527;28;20460;-74
2023/05/19 10:54:50;;;;;;;8.77;7.07;;;;;;;;;;5115567;28;20541;-74
2023/05/19 10:57:17;;;;;;;11.83;8.03;;;;;;;;;;5115367;28;20461;-73
2023/05/19 10:59:44;;;;;;;8.50;7.07;;;;;;;;;;5115297;28;20465;-74
2023/05/19 11:02:11;;;;;;;11.23;6.43;;;;;;;;;;5114603;28;20453;-74
2023/05/19 11:04:39;;;;;;;8.17;6.63;;;;;;;;;;5114941;28;20473;-74
2023/05/19 11:07:09;;;;;;;8.47;6.20;;;;;;;;;;5115180;27;20450;-74
2023/05/19 11:09:41;;;;;;;9.47;6.90;;;;;;;;;;5115217;28;20511;-74
2023/05/19 11:12:10;;;;;;;8.60;6.40;;;;;;;;;;5115392;28;20437;-74
2023/05/19 11:14:38;;;;;;;10.40;8.43;;;;;;;;;;5114685;28;20546;-74
2023/05/19 11:17:13;;;;;;;7.53;6.47;;;;;;;;;;5114948;28;20457;-74
2023/05/19 11:19:41;;;;;;;10.17;7.30;;;;;;;;;;5114654;28;20441;-74
2023/05/19 11:22:09;;;;;;;9.03;7.10;;;;;;;;;;5115220;28;20934;-74
2023/05/19 11:24:38;;;;;;;8.20;7.17;;;;;;;;;;5114556;28;20476;-74
2023/05/19 11:27:19;;;;;;;8.77;6.47;;;;;;;;;;5114835;27;20456;-74
2023/05/19 11:29:48;;;;;;;10.27;7.30;;;;;;;;;;5114754;28;20484;-74
2023/05/19 11:32:15;;;;;;;8.17;7.37;;;;;;;;;;5114803;28;20826;-74
2023/05/19 11:34:42;;;;;;;9.30;7.50;;;;;;;;;;5114515;28;20488;-75
2023/05/19 11:37:10;;;;;;;9.27;7.23;;;;;;;;;;5114924;28;20445;-75
2023/05/19 11:39:37;;;;;;;12.23;7.10;;;;;;;;;;5114635;28;20832;-74
2023/05/19 11:42:04;;;;;;;11.53;6.97;;;;;;;;;;5114610;28;20452;-75
2023/05/19 11:44:33;;;;;;;9.17;7.23;;;;;;;;;;5114178;28;20503;-74
2023/05/19 11:47:00;;;;;;;9.90;7.33;;;;;;;;;;5114545;28;20446;-74
2023/05/19 11:49:28;;;;;;;10.37;6.87;;;;;;;;;;5114406;28;21003;-74
2023/05/19 11:51:55;;;;;;;8.40;6.80;;;;;;;;;;5114261;28;20517;-74
2023/05/19 11:54:22;;;;;;;8.33;7.27;;;;;;;;;;5114074;28;20986;-74
2023/05/19 11:56:49;;;;;;;9.03;7.07;;;;;;;;;;5114297;28;20456;-74
2023/05/19 11:59:16;;;;;;;11.40;7.80;;;;;;;;;;5114294;28;20457;-74
2023/05/19 12:01:45;;;;;;;7.60;6.80;;;;;;;;;;5114226;28;20472;-74
2023/05/19 12:04:12;;;;;;;7.97;6.53;;;;;;;;;;5113980;28;20481;-74
2023/05/19 12:06:39;;;;;;;7.20;6.50;;;;;;;;;;5113757;28;20921;-74
2023/05/19 12:09:08;;;;;;;7.00;6.30;;;;;;;;;;5114068;28;20467;-74
2023/05/19 12:11:35;;;;;;;8.60;6.53;;;;;;;;;;5113910;28;20485;-74
2023/05/19 12:14:02;;;;;;;10.73;7.83;;;;;;;;;;5113311;28;20477;-74
2023/05/19 12:16:35;;;;;;;7.73;6.93;;;;;;;;;;5113867;28;20832;-74
2023/05/19 12:19:06;;;;;;;10.40;7.10;;;;;;;;;;5114310;28;20797;-74
2023/05/19 12:21:33;;;;;;;9.07;6.83;;;;;;;;;;5113368;28;20902;-74
2023/05/19 12:24:00;;;;;;;6.47;5.80;;;;;;;;;;5113535;28;20469;-74
2023/05/19 12:26:27;;;;;;;8.67;6.53;;;;;;;;;;5113712;27;20454;-74
2023/05/19 12:28:55;;;;;;;5.70;5.20;;;;;;;;;;5113724;28;20454;-74
2023/05/19 12:31:23;;;;;;;6.20;5.10;;;;;;;;;;5113602;28;20485;-74
2023/05/19 12:33:50;;;;;;;8.63;5.13;;;;;;;;;;5113763;28;20473;-74
2023/05/19 12:36:19;;;;;;;7.70;5.10;;;;;;;;;;5113529;28;20461;-74
2023/05/19 12:38:46;;;;;;;6.40;5.80;;;;;;;;;;5113526;28;20458;-74
2023/05/19 12:41:13;;;;;;;7.53;5.70;;;;;;;;;;5113719;28;20988;-75
2023/05/19 12:43:41;;;;;;;10.43;5.70;;;;;;;;;;5113374;28;20476;-74
2023/05/19 12:46:11;;;;;;;8.43;6.00;;;;;;;;;;5113358;28;20468;-74
2023/05/19 12:48:41;;;;;;;6.83;6.10;;;;;;;;;;5113468;28;20482;-74
2023/05/19 12:51:08;;;;;;;7.63;6.37;;;;;;;;;;5113234;28;20486;-74
2023/05/19 12:53:37;;;;;;;7.83;6.43;;;;;;;;;;5113115;28;20478;-74
2023/05/19 12:56:10;;;;;;;7.40;6.70;;;;;;;;;;5113415;28;20965;-74
2023/05/19 12:58:38;;;;;;;6.30;5.20;;;;;;;;;;5113307;28;20453;-74
2023/05/19 13:01:05;;;;;;;6.47;5.87;;;;;;;;;;5113080;28;20446;-74
2023/05/19 13:03:32;;;;;;;6.20;5.60;;;;;;;;;;5112989;28;20478;-74
2023/05/19 13:05:59;;;;;;;10.17;5.67;;;;;;;;;;5113278;28;20449;-74
2023/05/19 13:08:27;;;;;;;5.93;5.27;;;;;;;;;;5112795;28;20452;-73
2023/05/19 13:10:55;;;;;;;9.73;5.90;;;;;;;;;;5113393;28;20572;-76
2023/05/19 13:13:23;;;;;;;5.63;5.03;;;;;;;;;;5113230;28;20968;-76
2023/05/19 13:15:50;;;;;;;6.80;6.10;;;;;;;;;;5112942;28;20555;-72
2023/05/19 13:18:17;;;;;;;7.10;6.10;;;;;;;;;;5113243;28;20456;-73
2023/05/19 13:20:45;;;;;;;8.37;5.77;;;;;;;;;;5112604;28;20449;-72
2023/05/19 13:23:12;;;;;;;5.87;5.07;;;;;;;;;;5113071;28;20535;-72
2023/05/19 13:25:40;;;;;;;8.53;6.17;;;;;;;;;;5114089;28;20468;-72
2023/05/19 13:28:08;;;;;;;9.23;5.67;;;;;;;;;;5117350;28;20449;-72
2023/05/19 13:30:36;;;;;;;6.53;5.23;;;;;;;;;;5117188;28;20450;-72
2023/05/19 13:33:03;;;;;;;6.53;5.93;;;;;;;;;;5117142;28;20471;-73
2023/05/19 13:35:35;;;;;;;9.50;5.53;;;;;;;;;;5117033;28;20481;-72
2023/05/19 13:38:03;;;;;;;6.57;5.10;;;;;;;;;;5117079;28;20464;-72
2023/05/19 13:40:31;;;;;;;6.37;5.73;;;;;;;;;;5117044;28;20500;-73
2023/05/19 13:42:58;;;;;;;7.60;5.23;;;;;;;;;;5116974;28;20839;-73
2023/05/19 13:45:27;;;;;;;8.33;5.60;;;;;;;;;;5116751;28;20507;-73
2023/05/19 13:47:54;;;;;;;7.07;6.07;;;;;;;;;;5116856;28;20536;-73
2023/05/19 13:50:21;;;;;;;7.40;5.70;;;;;;;;;;5116778;28;20544;-73
2023/05/19 13:52:48;;;;;;;6.37;5.77;;;;;;;;;;5116629;28;20496;-73
2023/05/19 13:55:16;;;;;;;6.20;5.60;;;;;;;;;;5116513;27;20446;-73
2023/05/19 13:57:43;;;;;;;7.10;6.00;;;;;;;;;;5116823;28;20544;-72
2023/05/19 14:00:11;;;;;;;6.40;5.30;;;;;;;;;;5116603;28;20453;-73
2023/05/19 14:02:39;;;;;;;9.20;5.80;;;;;;;;;;5116335;28;20552;-73
2023/05/19 14:05:07;;;;;;;6.03;5.00;;;;;;;;;;5116340;28;20453;-72
2023/05/19 14:07:34;;;;;;;6.13;5.57;;;;;;;;;;5116193;28;20540;-72
2023/05/19 14:10:01;;;;;;;6.07;5.20;;;;;;;;;;5116507;28;20491;-73
2023/05/19 14:12:29;;;;;;;6.50;5.53;;;;;;;;;;5116276;28;20485;-73
2023/05/19 14:14:56;;;;;;;6.57;5.00;;;;;;;;;;5116227;28;20461;-73
2023/05/19 14:17:23;;;;;;;7.10;4.70;;;;;;;;;;5116200;28;20449;-73
2023/05/19 14:19:52;;;;;;;14.70;5.47;;;;;;;;;;5115732;28;20455;-73
2023/05/19 14:22:19;;;;;;;6.07;4.80;;;;;;;;;;5116320;28;20461;-73
2023/05/19 14:24:46;;;;;;;6.77;5.20;;;;;;;;;;5115856;28;20489;-72
2023/05/19 14:27:13;;;;;;;5.57;5.07;;;;;;;;;;5116103;28;20473;-72
2023/05/19 14:29:40;;;;;;;10.03;6.97;;;;;;;;;;5116176;28;20450;-73
2023/05/19 14:32:08;;;;;;;7.33;4.43;;;;;;;;;;5115986;28;20490;-73
2023/05/19 14:34:35;;;;;;;7.03;4.70;;;;;;;;;;5115680;28;20833;-72
2023/05/19 14:37:04;;;;;;;6.00;5.20;;;;;;;;;;5115990;28;20456;-73
2023/05/19 14:39:31;;;;;;;6.83;5.07;;;;;;;;;;5115896;28;20954;-73
2023/05/19 14:41:59;;;;;;;10.07;5.20;;;;;;;;;;5115887;28;20454;-73